Time,TemperatureF,DewpointF,PressureIn,WindDirection,WindDirectionDegrees,WindSpeedMPH,WindSpeedGustMPH,Humidity,HourlyPrecipIn,Conditions,Clouds,dailyrainin,SoftwareType,DateUTC
2013-09-20 00:05:00,65.1,64.5,29.81,SSW,213,0.0,0.0,98,0.00,,,0.00,Wunderground v.1.15,2013-09-20 05:05:00,
2013-09-20 00:10:00,65.0,64.4,29.81,SW,215,0.0,0.0,98,0.00,,,0.00,Wunderground v.1.15,2013-09-20 05:10:00,
2013-09-20 00:15:00,65.0,64.4,29.81,SW,227,0.0,0.0,98,0.00,,,0.00,Wunderground v.1.15,2013-09-20 05:15:00,
2013-09-20 00:20:00,65.0,64.4,29.81,SW,226,0.0,0.0,98,0.00,,,0.00,Wunderground v.1.15,2013-09-20 05:20:00,
2013-09-20 00:25:00,65.0,64.4,29.81,SW,226,0.0,0.0,98,0.00,,,0.00,Wunderground v.1.15,2013-09-20 05:25:00,
2013-09-20 00:30:00,65.0,64.4,29.81,SW,230,0.0,0.0,98,0.00,,,0.00,Wunderground v.1.15,2013-09-20 05:30:00,
2013-09-20 00:40:00,65.0,64.4,29.81,SW,232,0.0,0.0,98,0.00,,,0.00,Wunderground v.1.15,2013-09-20 05:40:00,
2013-09-20 00:45:00,65.1,64.5,29.81,SW,232,0.0,0.0,98,0.00,,,0.00,Wunderground v.1.15,2013-09-20 05:45:00,
2013-09-20 00:50:00,65.1,64.5,29.81,SW,232,0.0,0.0,98,0.00,,,0.00,Wunderground v.1.15,2013-09-20 05:50:00,
2013-09-20 00:55:00,65.1,64.5,29.81,SW,232,0.0,0.0,98,0.00,,,0.00,Wunderground v.1.15,2013-09-20 05:55:00,
2013-09-20 01:05:00,65.1,64.5,29.81,SW,232,0.0,0.0,98,0.00,,,0.00,Wunderground v.1.15,2013-09-20 06:05:00,
2013-09-20 01:10:00,65.1,64.5,29.81,SW,232,0.0,0.0,98,0.00,,,0.00,Wunderground v.1.15,2013-09-20 06:10:00,
2013-09-20 01:15:00,65.1,64.5,29.82,WNW,291,0.0,0.0,98,0.00,,,0.00,Wunderground v.1.15,2013-09-20 06:15:00,
2013-09-20 01:20:00,65.2,64.6,29.82,WNW,300,0.0,0.0,98,0.00,,,0.00,Wunderground v.1.15,2013-09-20 06:20:00,
2013-09-20 01:25:00,65.2,64.6,29.82,West,261,0.0,0.0,98,0.00,,,0.00,Wunderground v.1.15,2013-09-20 06:25:00,
2013-09-20 01:30:00,65.1,64.5,29.82,NNW,337,0.0,0.0,98,0.00,,,0.00,Wunderground v.1.15,2013-09-20 06:30:00,
2013-09-20 01:35:00,65.0,64.4,29.82,WNW,292,0.0,0.0,98,0.00,,,0.00,Wunderground v.1.15,2013-09-20 06:35:00,
2013-09-20 01:40:00,64.7,64.1,29.82,NW,322,0.0,0.0,98,0.00,,,0.00,Wunderground v.1.15,2013-09-20 06:40:00,
2013-09-20 01:45:00,64.3,63.7,29.82,NW,318,0.0,0.0,98,0.00,,,0.00,Wunderground v.1.15,2013-09-20 06:45:00,
2013-09-20 01:50:00,64.0,63.4,29.82,North,355,0.0,0.0,98,0.00,,,0.00,Wunderground v.1.15,2013-09-20 06:50:00,
2013-09-20 02:00:00,63.0,62.4,29.83,WNW,298,0.0,0.0,98,0.00,,,0.00,Wunderground v.1.15,2013-09-20 07:00:00,
2013-09-20 02:05:00,62.4,61.5,29.83,WNW,288,0.0,0.0,97,0.00,,,0.00,Wunderground v.1.15,2013-09-20 07:05:00,
2013-09-20 02:10:00,61.9,61.0,29.84,WSW,253,0.0,0.0,97,0.00,,,0.00,Wunderground v.1.15,2013-09-20 07:10:00,
2013-09-20 02:15:00,61.5,60.6,29.83,NW,313,0.0,0.0,97,0.00,,,0.00,Wunderground v.1.15,2013-09-20 07:15:00,
2013-09-20 02:20:00,61.3,60.4,29.83,NW,307,0.0,0.0,97,0.00,,,0.00,Wunderground v.1.15,2013-09-20 07:20:00,
2013-09-20 02:25:00,61.2,60.3,29.83,NW,309,0.0,0.0,97,0.00,,,0.00,Wunderground v.1.15,2013-09-20 07:25:00,
2013-09-20 02:30:00,61.0,59.9,29.83,North,5,0.0,0.0,96,0.00,,,0.00,Wunderground v.1.15,2013-09-20 07:30:00,
2013-09-20 02:35:00,60.8,59.4,29.83,WNW,283,0.0,0.0,95,0.00,,,0.00,Wunderground v.1.15,2013-09-20 07:35:00,
2013-09-20 02:40:00,60.7,59.3,29.83,WNW,294,0.0,0.0,95,0.00,,,0.00,Wunderground v.1.15,2013-09-20 07:40:00,
2013-09-20 02:50:00,60.5,58.5,29.83,NW,315,0.0,0.0,93,0.00,,,0.00,Wunderground v.1.15,2013-09-20 07:50:00,
2013-09-20 02:55:00,60.5,58.2,29.83,WNW,283,0.0,0.0,92,0.00,,,0.00,Wunderground v.1.15,2013-09-20 07:55:00,
2013-09-20 03:00:00,60.5,57.6,29.83,North,9,0.0,0.0,90,0.00,,,0.00,Wunderground v.1.15,2013-09-20 08:00:00,
2013-09-20 03:05:00,60.5,57.2,29.83,WNW,289,0.0,0.0,89,0.00,,,0.00,Wunderground v.1.15,2013-09-20 08:05:00,
2013-09-20 03:10:00,60.5,56.9,29.83,WNW,299,0.0,0.0,88,0.00,,,0.00,Wunderground v.1.15,2013-09-20 08:10:00,
2013-09-20 03:15:00,60.6,56.7,29.83,NNW,330,0.0,0.0,87,0.00,,,0.00,Wunderground v.1.15,2013-09-20 08:15:00,
2013-09-20 03:20:00,60.5,56.6,29.83,WNW,292,0.0,0.0,87,0.00,,,0.00,Wunderground v.1.15,2013-09-20 08:20:00,
2013-09-20 03:25:00,60.5,56.3,29.83,NNW,335,2.0,5.0,86,0.00,,,0.00,Wunderground v.1.15,2013-09-20 08:25:00,
2013-09-20 03:30:00,60.4,56.2,29.83,WNW,303,2.0,2.0,86,0.00,,,0.00,Wunderground v.1.15,2013-09-20 08:30:00,
2013-09-20 03:35:00,60.3,56.1,29.83,NW,316,1.0,2.0,86,0.00,,,0.00,Wunderground v.1.15,2013-09-20 08:35:00,
2013-09-20 03:45:00,60.0,55.8,29.83,NW,323,1.0,1.0,86,0.00,,,0.00,Wunderground v.1.15,2013-09-20 08:45:00,
2013-09-20 03:50:00,59.9,55.7,29.83,NW,311,0.0,0.0,86,0.00,,,0.00,Wunderground v.1.15,2013-09-20 08:50:00,
2013-09-20 03:55:00,59.9,55.7,29.84,NW,305,0.0,0.0,86,0.00,,,0.00,Wunderground v.1.15,2013-09-20 08:55:00,
2013-09-20 04:00:00,59.9,55.7,29.83,WNW,294,0.0,0.0,86,0.00,,,0.00,Wunderground v.1.15,2013-09-20 09:00:00,
2013-09-20 04:05:00,59.8,55.6,29.84,NW,326,0.0,0.0,86,0.00,,,0.00,Wunderground v.1.15,2013-09-20 09:05:00,
2013-09-20 04:15:00,59.8,55.6,29.84,North,9,0.0,0.0,86,0.00,,,0.00,Wunderground v.1.15,2013-09-20 09:15:00,
2013-09-20 04:20:00,59.8,55.6,29.84,North,355,1.0,1.0,86,0.00,,,0.00,Wunderground v.1.15,2013-09-20 09:20:00,
2013-09-20 04:25:00,59.8,55.6,29.84,NNW,336,1.0,1.0,86,0.00,,,0.00,Wunderground v.1.15,2013-09-20 09:25:00,
2013-09-20 04:30:00,59.7,55.5,29.84,NNW,335,0.0,0.0,86,0.00,,,0.00,Wunderground v.1.15,2013-09-20 09:30:00,
2013-09-20 04:35:00,59.5,55.3,29.84,WNW,284,0.0,0.0,86,0.00,,,0.00,Wunderground v.1.15,2013-09-20 09:35:00,
2013-09-20 04:40:00,59.4,55.2,29.84,NNW,346,0.0,0.0,86,0.00,,,0.00,Wunderground v.1.15,2013-09-20 09:40:00,
2013-09-20 04:45:00,59.2,55.0,29.84,NNW,329,0.0,0.0,86,0.00,,,0.00,Wunderground v.1.15,2013-09-20 09:45:00,
2013-09-20 04:50:00,59.0,54.8,29.84,WNW,290,0.0,0.0,86,0.00,,,0.00,Wunderground v.1.15,2013-09-20 09:50:00,
2013-09-20 04:55:00,58.8,54.6,29.85,West,277,0.0,0.0,86,0.00,,,0.00,Wunderground v.1.15,2013-09-20 09:55:00,
2013-09-20 05:05:00,58.5,54.3,29.85,WNW,293,0.0,0.0,86,0.00,,,0.00,Wunderground v.1.15,2013-09-20 10:05:00,
2013-09-20 05:10:00,58.5,54.6,29.85,NW,324,0.0,0.0,87,0.00,,,0.00,Wunderground v.1.15,2013-09-20 10:10:00,
2013-09-20 05:15:00,58.5,54.6,29.85,NW,322,0.0,0.0,87,0.00,,,0.00,Wunderground v.1.15,2013-09-20 10:15:00,
2013-09-20 05:20:00,58.2,54.3,29.86,NW,310,0.0,0.0,87,0.00,,,0.00,Wunderground v.1.15,2013-09-20 10:20:00,
2013-09-20 05:30:00,57.9,54.1,29.86,NW,323,0.0,0.0,87,0.00,,,0.00,Wunderground v.1.15,2013-09-20 10:30:00,
2013-09-20 05:35:00,57.7,54.2,29.86,NW,325,0.0,0.0,88,0.00,,,0.00,Wunderground v.1.15,2013-09-20 10:35:00,
2013-09-20 05:40:00,57.5,54.0,29.86,West,267,0.0,0.0,88,0.00,,,0.00,Wunderground v.1.15,2013-09-20 10:40:00,
2013-09-20 05:45:00,57.4,53.9,29.86,WNW,291,0.0,0.0,88,0.00,,,0.00,Wunderground v.1.15,2013-09-20 10:45:00,
2013-09-20 05:50:00,57.2,53.7,29.86,WNW,298,0.0,0.0,88,0.00,,,0.00,Wunderground v.1.15,2013-09-20 10:50:00,
2013-09-20 05:55:00,57.0,53.5,29.87,North,10,0.0,0.0,88,0.00,,,0.00,Wunderground v.1.15,2013-09-20 10:55:00,
2013-09-20 06:05:00,56.7,53.5,29.87,WNW,298,0.0,0.0,89,0.00,,,0.00,Wunderground v.1.15,2013-09-20 11:05:00,
2013-09-20 06:10:00,56.6,53.4,29.88,WNW,298,0.0,0.0,89,0.00,,,0.00,Wunderground v.1.15,2013-09-20 11:10:00,
2013-09-20 06:15:00,56.4,53.2,29.88,WNW,298,0.0,0.0,89,0.00,,,0.00,Wunderground v.1.15,2013-09-20 11:15:00,
2013-09-20 06:20:00,56.3,53.1,29.88,WNW,298,0.0,0.0,89,0.00,,,0.00,Wunderground v.1.15,2013-09-20 11:20:00,
2013-09-20 06:25:00,56.1,53.2,29.88,WNW,298,0.0,0.0,90,0.00,,,0.00,Wunderground v.1.15,2013-09-20 11:25:00,
2013-09-20 06:30:00,55.9,53.0,29.88,WNW,291,0.0,0.0,90,0.00,,,0.00,Wunderground v.1.15,2013-09-20 11:30:00,
2013-09-20 06:35:00,55.8,52.9,29.88,WNW,295,0.0,0.0,90,0.00,,,0.00,Wunderground v.1.15,2013-09-20 11:35:00,
2013-09-20 06:40:00,55.7,52.8,29.89,WSW,241,0.0,0.0,90,0.00,,,0.00,Wunderground v.1.15,2013-09-20 11:40:00,
2013-09-20 06:50:00,55.5,52.9,29.89,WNW,284,0.0,0.0,91,0.00,,,0.00,Wunderground v.1.15,2013-09-20 11:50:00,
2013-09-20 06:55:00,55.4,52.8,29.89,NW,323,0.0,0.0,91,0.00,,,0.00,Wunderground v.1.15,2013-09-20 11:55:00,
2013-09-20 07:00:00,55.3,52.7,29.89,NE,35,0.0,0.0,91,0.00,,,0.00,Wunderground v.1.15,2013-09-20 12:00:00,
2013-09-20 07:05:00,55.2,52.6,29.89,West,259,0.0,0.0,91,0.00,,,0.00,Wunderground v.1.15,2013-09-20 12:05:00,
2013-09-20 07:10:00,55.1,52.5,29.90,West,259,0.0,0.0,91,0.00,,,0.00,Wunderground v.1.15,2013-09-20 12:10:00,
2013-09-20 07:15:00,55.0,52.4,29.90,NW,323,0.0,0.0,91,0.00,,,0.00,Wunderground v.1.15,2013-09-20 12:15:00,
2013-09-20 07:20:00,54.9,52.3,29.90,WNW,284,0.0,0.0,91,0.00,,,0.00,Wunderground v.1.15,2013-09-20 12:20:00,
2013-09-20 07:25:00,54.8,52.2,29.90,NW,322,0.0,0.0,91,0.00,,,0.00,Wunderground v.1.15,2013-09-20 12:25:00,
2013-09-20 07:30:00,54.8,52.2,29.90,West,261,0.0,0.0,91,0.00,,,0.00,Wunderground v.1.15,2013-09-20 12:30:00,
2013-09-20 07:40:00,54.7,52.1,29.90,West,271,0.0,0.0,91,0.00,,,0.00,Wunderground v.1.15,2013-09-20 12:40:00,
2013-09-20 07:45:00,54.6,52.0,29.90,South,191,0.0,0.0,91,0.00,,,0.00,Wunderground v.1.15,2013-09-20 12:45:00,
2013-09-20 07:55:00,54.6,52.0,29.91,West,276,0.0,0.0,91,0.00,,,0.00,Wunderground v.1.15,2013-09-20 12:55:00,
2013-09-20 08:05:00,54.6,51.7,29.91,NW,311,0.0,0.0,90,0.00,,,0.00,Wunderground v.1.15,2013-09-20 13:05:00,
2013-09-20 08:10:00,54.5,51.6,29.91,North,9,0.0,0.0,90,0.00,,,0.00,Wunderground v.1.15,2013-09-20 13:10:00,
2013-09-20 08:15:00,54.5,51.6,29.91,WNW,294,0.0,0.0,90,0.00,,,0.00,Wunderground v.1.15,2013-09-20 13:15:00,
2013-09-20 08:20:00,54.5,51.6,29.91,WNW,295,0.0,0.0,90,0.00,,,0.00,Wunderground v.1.15,2013-09-20 13:20:00,
2013-09-20 08:25:00,54.4,51.5,29.91,North,360,0.0,0.0,90,0.00,,,0.00,Wunderground v.1.15,2013-09-20 13:25:00,
2013-09-20 08:30:00,54.4,51.5,29.91,NW,319,0.0,0.0,90,0.00,,,0.00,Wunderground v.1.15,2013-09-20 13:30:00,
2013-09-20 08:35:00,54.3,51.4,29.91,WNW,291,0.0,0.0,90,0.00,,,0.00,Wunderground v.1.15,2013-09-20 13:35:00,
2013-09-20 08:40:00,54.3,51.1,29.91,NW,308,0.0,0.0,89,0.00,,,0.00,Wunderground v.1.15,2013-09-20 13:40:00,
2013-09-20 08:50:00,54.3,51.1,29.92,NW,318,0.0,0.0,89,0.00,,,0.00,Wunderground v.1.15,2013-09-20 13:50:00,
2013-09-20 08:55:00,54.4,51.2,29.92,NNW,341,0.0,0.0,89,0.00,,,0.00,Wunderground v.1.15,2013-09-20 13:55:00,
2013-09-20 09:00:00,54.4,50.9,29.92,NW,309,0.0,0.0,88,0.00,,,0.00,Wunderground v.1.15,2013-09-20 14:00:00,
2013-09-20 09:05:00,54.5,51.0,29.91,WSW,256,0.0,0.0,88,0.00,,,0.00,Wunderground v.1.15,2013-09-20 14:05:00,
2013-09-20 09:15:00,54.8,51.3,29.92,NW,304,0.0,0.0,88,0.00,,,0.00,Wunderground v.1.15,2013-09-20 14:15:00,
2013-09-20 09:20:00,55.0,51.5,29.92,NW,319,0.0,0.0,88,0.00,,,0.00,Wunderground v.1.15,2013-09-20 14:20:00,
2013-09-20 09:25:00,55.3,51.5,29.92,NNW,339,0.0,0.0,87,0.00,,,0.00,Wunderground v.1.15,2013-09-20 14:25:00,
2013-09-20 09:30:00,55.7,51.9,29.92,WNW,301,0.0,0.0,87,0.00,,,0.00,Wunderground v.1.15,2013-09-20 14:30:00,
2013-09-20 09:35:00,56.1,51.7,29.92,West,271,0.0,0.0,85,0.00,,,0.00,Wunderground v.1.15,2013-09-20 14:35:00,
2013-09-20 09:40:00,56.4,51.9,29.92,North,11,0.0,0.0,85,0.00,,,0.00,Wunderground v.1.15,2013-09-20 14:40:00,
2013-09-20 09:45:00,56.7,51.9,29.92,NW,314,0.0,0.0,84,0.00,,,0.00,Wunderground v.1.15,2013-09-20 14:45:00,
2013-09-20 09:55:00,56.7,51.6,29.92,East,82,0.0,0.0,83,0.00,,,0.00,Wunderground v.1.15,2013-09-20 14:55:00,
2013-09-20 10:00:00,56.8,51.4,29.92,NNE,25,0.0,0.0,82,0.00,,,0.00,Wunderground v.1.15,2013-09-20 15:00:00,
2013-09-20 10:05:00,56.7,51.3,29.92,SW,236,0.0,0.0,82,0.00,,,0.00,Wunderground v.1.15,2013-09-20 15:05:00,
2013-09-20 10:10:00,56.6,51.2,29.92,NNW,330,0.0,0.0,82,0.00,,,0.00,Wunderground v.1.15,2013-09-20 15:10:00,
2013-09-20 10:15:00,56.6,51.2,29.92,WNW,298,0.0,0.0,82,0.00,,,0.00,Wunderground v.1.15,2013-09-20 15:15:00,
2013-09-20 10:25:00,56.8,51.4,29.92,SW,233,0.0,0.0,82,0.00,,,0.00,Wunderground v.1.15,2013-09-20 15:25:00,
2013-09-20 10:30:00,57.0,51.2,29.91,NW,325,0.0,0.0,81,0.00,,,0.00,Wunderground v.1.15,2013-09-20 15:30:00,
2013-09-20 10:35:00,57.3,51.5,29.92,WNW,302,0.0,0.0,81,0.00,,,0.00,Wunderground v.1.15,2013-09-20 15:35:00,
2013-09-20 10:40:00,57.8,51.7,29.92,WNW,300,0.0,0.0,80,0.00,,,0.00,Wunderground v.1.15,2013-09-20 15:40:00,
2013-09-20 10:50:00,58.6,52.1,29.92,NNW,330,0.0,0.0,79,0.00,,,0.00,Wunderground v.1.15,2013-09-20 15:50:00,
2013-09-20 10:55:00,59.3,51.7,29.91,WNW,284,0.0,0.0,76,0.00,,,0.00,Wunderground v.1.15,2013-09-20 15:55:00,
2013-09-20 11:00:00,59.9,51.2,29.92,West,267,0.0,0.0,73,0.00,,,0.00,Wunderground v.1.15,2013-09-20 16:00:00,
2013-09-20 11:05:00,60.3,50.9,29.92,North,360,0.0,0.0,71,0.00,,,0.00,Wunderground v.1.15,2013-09-20 16:05:00,
2013-09-20 11:10:00,60.7,51.2,29.92,East,98,0.0,0.0,71,0.00,,,0.00,Wunderground v.1.15,2013-09-20 16:10:00,
2013-09-20 11:15:00,61.0,51.1,29.92,NW,313,1.0,1.0,70,0.00,,,0.00,Wunderground v.1.15,2013-09-20 16:15:00,
2013-09-20 11:20:00,61.1,51.2,29.92,WSW,245,1.0,1.0,70,0.00,,,0.00,Wunderground v.1.15,2013-09-20 16:20:00,
2013-09-20 11:25:00,61.1,50.8,29.92,NNW,335,0.0,1.0,69,0.00,,,0.00,Wunderground v.1.15,2013-09-20 16:25:00,
2013-09-20 11:35:00,61.5,50.8,29.91,NW,313,2.0,2.0,68,0.00,,,0.00,Wunderground v.1.15,2013-09-20 16:35:00,
2013-09-20 11:45:00,62.3,51.2,29.91,South,182,1.0,3.0,67,0.00,,,0.00,Wunderground v.1.15,2013-09-20 16:45:00,
2013-09-20 11:50:00,62.4,50.9,29.91,WNW,303,1.0,2.0,66,0.00,,,0.00,Wunderground v.1.15,2013-09-20 16:50:00,
2013-09-20 11:55:00,62.5,51.4,29.91,South,183,3.0,3.0,67,0.00,,,0.00,Wunderground v.1.15,2013-09-20 16:55:00,
2013-09-20 12:00:00,62.8,51.3,29.91,SSW,205,1.0,1.0,66,0.00,,,0.00,Wunderground v.1.15,2013-09-20 17:00:00,
2013-09-20 12:05:00,63.3,52.2,29.91,South,187,0.0,1.0,67,0.00,,,0.00,Wunderground v.1.15,2013-09-20 17:05:00,
2013-09-20 12:10:00,63.6,52.0,29.90,WNW,287,0.0,0.0,66,0.00,,,0.00,Wunderground v.1.15,2013-09-20 17:10:00,
2013-09-20 12:15:00,63.4,51.8,29.91,West,279,1.0,1.0,66,0.00,,,0.00,Wunderground v.1.15,2013-09-20 17:15:00,
2013-09-20 12:20:00,63.4,51.4,29.90,WNW,284,2.0,2.0,65,0.00,,,0.00,Wunderground v.1.15,2013-09-20 17:20:00,
2013-09-20 12:30:00,63.7,52.1,29.90,NW,310,0.0,1.0,66,0.00,,,0.00,Wunderground v.1.15,2013-09-20 17:30:00,
2013-09-20 12:35:00,63.7,51.7,29.90,NW,304,1.0,1.0,65,0.00,,,0.00,Wunderground v.1.15,2013-09-20 17:35:00,
2013-09-20 12:40:00,64.0,52.0,29.90,WNW,284,1.0,1.0,65,0.00,,,0.00,Wunderground v.1.15,2013-09-20 17:40:00,
2013-09-20 12:50:00,64.1,52.1,29.90,West,280,0.0,9.0,65,0.00,,,0.00,Wunderground v.1.15,2013-09-20 17:50:00,
2013-09-20 12:55:00,64.5,53.3,29.90,West,279,1.0,9.0,67,0.00,,,0.00,Wunderground v.1.15,2013-09-20 17:55:00,
2013-09-20 13:00:00,65.2,53.1,29.90,WSW,256,1.0,1.0,65,0.00,,,0.00,Wunderground v.1.15,2013-09-20 18:00:00,
2013-09-20 13:05:00,66.0,53.9,29.90,North,9,0.0,3.0,65,0.00,,,0.00,Wunderground v.1.15,2013-09-20 18:05:00,
2013-09-20 13:10:00,65.7,52.8,29.90,SW,223,1.0,1.0,63,0.00,,,0.00,Wunderground v.1.15,2013-09-20 18:10:00,
2013-09-20 13:15:00,65.6,52.7,29.91,North,355,1.0,1.0,63,0.00,,,0.00,Wunderground v.1.15,2013-09-20 18:15:00,
2013-09-20 13:25:00,66.0,52.6,29.91,WNW,284,1.0,1.0,62,0.00,,,0.00,Wunderground v.1.15,2013-09-20 18:25:00,
2013-09-20 13:30:00,65.5,52.6,29.90,North,360,1.0,1.0,63,0.00,,,0.00,Wunderground v.1.15,2013-09-20 18:30:00,
2013-09-20 13:35:00,65.4,53.7,29.90,WSW,239,2.0,5.0,66,0.00,,,0.00,Wunderground v.1.15,2013-09-20 18:35:00,
2013-09-20 13:40:00,65.5,52.6,29.90,WSW,257,1.0,1.0,63,0.00,,,0.00,Wunderground v.1.15,2013-09-20 18:40:00,
2013-09-20 13:45:00,65.2,52.3,29.90,WSW,250,1.0,1.0,63,0.00,,,0.00,Wunderground v.1.15,2013-09-20 18:45:00,
2013-09-20 13:50:00,65.2,52.7,29.90,SSE,156,1.0,1.0,64,0.00,,,0.00,Wunderground v.1.15,2013-09-20 18:50:00,
2013-09-20 14:00:00,65.9,53.4,29.90,NNW,345,0.0,0.0,64,0.00,,,0.00,Wunderground v.1.15,2013-09-20 19:00:00,
2013-09-20 14:05:00,65.9,52.9,29.90,WNW,285,0.0,0.0,63,0.00,,,0.00,Wunderground v.1.15,2013-09-20 19:05:00,
2013-09-20 14:10:00,65.7,53.2,29.89,NNE,17,0.0,0.0,64,0.00,,,0.00,Wunderground v.1.15,2013-09-20 19:10:00,
2013-09-20 14:15:00,65.5,53.0,29.89,North,355,0.0,0.0,64,0.00,,,0.00,Wunderground v.1.15,2013-09-20 19:15:00,
2013-09-20 14:20:00,65.5,52.6,29.89,NNW,333,1.0,1.0,63,0.00,,,0.00,Wunderground v.1.15,2013-09-20 19:20:00,
2013-09-20 14:25:00,65.4,52.9,29.89,North,355,3.0,3.0,64,0.00,,,0.00,Wunderground v.1.15,2013-09-20 19:25:00,
2013-09-20 14:30:00,65.5,53.4,29.89,NW,318,2.0,6.0,65,0.00,,,0.00,Wunderground v.1.15,2013-09-20 19:30:00,
2013-09-20 14:35:00,66.4,53.8,29.89,NNE,26,1.0,6.0,64,0.00,,,0.00,Wunderground v.1.15,2013-09-20 19:35:00,
2013-09-20 14:40:00,67.0,53.1,29.89,NW,313,1.0,1.0,61,0.00,,,0.00,Wunderground v.1.15,2013-09-20 19:40:00,
2013-09-20 14:50:00,66.9,53.0,29.89,North,360,1.0,1.0,61,0.00,,,0.00,Wunderground v.1.15,2013-09-20 19:50:00,
2013-09-20 14:55:00,66.7,53.7,29.89,NW,316,3.0,3.0,63,0.00,,,0.00,Wunderground v.1.15,2013-09-20 19:55:00,
2013-09-20 15:00:00,66.5,53.1,29.89,WNW,295,2.0,3.0,62,0.00,,,0.00,Wunderground v.1.15,2013-09-20 20:00:00,
2013-09-20 15:05:00,66.0,53.0,29.89,North,360,1.0,3.0,63,0.00,,,0.00,Wunderground v.1.15,2013-09-20 20:05:00,
2013-09-20 15:15:00,66.4,52.5,29.89,North,355,1.0,6.0,61,0.00,,,0.00,Wunderground v.1.15,2013-09-20 20:15:00,
2013-09-20 15:20:00,65.9,52.5,29.89,West,281,3.0,10.0,62,0.00,,,0.00,Wunderground v.1.15,2013-09-20 20:20:00,
2013-09-20 15:25:00,65.7,52.8,29.89,NW,319,4.0,10.0,63,0.00,,,0.00,Wunderground v.1.15,2013-09-20 20:25:00,
2013-09-20 15:30:00,65.5,53.0,29.89,NNW,348,2.0,2.0,64,0.00,,,0.00,Wunderground v.1.15,2013-09-20 20:30:00,
2013-09-20 15:35:00,65.4,52.9,29.89,NW,304,1.0,2.0,64,0.00,,,0.00,Wunderground v.1.15,2013-09-20 20:35:00,
2013-09-20 15:45:00,65.4,52.9,29.89,SW,232,0.0,0.0,64,0.00,,,0.00,Wunderground v.1.15,2013-09-20 20:45:00,
2013-09-20 15:50:00,66.1,52.7,29.89,NW,306,0.0,0.0,62,0.00,,,0.00,Wunderground v.1.15,2013-09-20 20:50:00,
2013-09-20 15:55:00,66.6,53.2,29.89,North,355,0.0,0.0,62,0.00,,,0.00,Wunderground v.1.15,2013-09-20 20:55:00,
2013-09-20 16:00:00,67.1,53.2,29.89,NW,309,1.0,3.0,61,0.00,,,0.00,Wunderground v.1.15,2013-09-20 21:00:00,
2013-09-20 16:05:00,67.1,53.2,29.89,NE,53,1.0,3.0,61,0.00,,,0.00,Wunderground v.1.15,2013-09-20 21:05:00,
2013-09-20 16:10:00,66.9,52.6,29.89,NNW,337,0.0,0.0,60,0.00,,,0.00,Wunderground v.1.15,2013-09-20 21:10:00,
2013-09-20 16:15:00,66.4,52.5,29.89,West,277,0.0,0.0,61,0.00,,,0.00,Wunderground v.1.15,2013-09-20 21:15:00,
2013-09-20 16:25:00,66.2,52.3,29.89,North,5,0.0,0.0,61,0.00,,,0.00,Wunderground v.1.15,2013-09-20 21:25:00,
2013-09-20 16:30:00,65.7,52.8,29.89,West,281,0.0,0.0,63,0.00,,,0.00,Wunderground v.1.15,2013-09-20 21:30:00,
2013-09-20 16:40:00,66.4,53.0,29.89,West,259,1.0,1.0,62,0.00,,,0.00,Wunderground v.1.15,2013-09-20 21:40:00,
2013-09-20 16:45:00,66.1,52.3,29.89,NNE,21,1.0,1.0,61,0.00,,,0.00,Wunderground v.1.15,2013-09-20 21:45:00,
2013-09-20 16:50:00,65.9,52.1,29.89,NW,311,0.0,0.0,61,0.00,,,0.00,Wunderground v.1.15,2013-09-20 21:50:00,
2013-09-20 16:55:00,65.8,52.9,29.89,North,360,0.0,0.0,63,0.00,,,0.00,Wunderground v.1.15,2013-09-20 21:55:00,
2013-09-20 17:00:00,65.6,52.7,29.89,NNW,330,0.0,0.0,63,0.00,,,0.00,Wunderground v.1.15,2013-09-20 22:00:00,
2013-09-20 17:05:00,65.6,52.7,29.89,NW,313,0.0,0.0,63,0.00,,,0.00,Wunderground v.1.15,2013-09-20 22:05:00,
2013-09-20 17:10:00,65.4,52.0,29.89,NNE,14,0.0,0.0,62,0.00,,,0.00,Wunderground v.1.15,2013-09-20 22:10:00,
2013-09-20 17:15:00,65.0,51.7,29.89,NNW,346,0.0,0.0,62,0.00,,,0.00,Wunderground v.1.15,2013-09-20 22:15:00,
2013-09-20 17:25:00,64.7,52.2,29.89,NNW,336,1.0,1.0,64,0.00,,,0.00,Wunderground v.1.15,2013-09-20 22:25:00,
2013-09-20 17:30:00,64.8,52.3,29.90,North,355,1.0,1.0,64,0.00,,,0.00,Wunderground v.1.15,2013-09-20 22:30:00,
2013-09-20 17:40:00,64.5,52.0,29.89,NNW,344,1.0,1.0,64,0.00,,,0.00,Wunderground v.1.15,2013-09-20 22:40:00,
2013-09-20 17:45:00,64.6,51.7,29.89,NNW,331,1.0,1.0,63,0.00,,,0.00,Wunderground v.1.15,2013-09-20 22:45:00,
2013-09-20 17:50:00,64.5,51.6,29.89,NNW,330,1.0,2.0,63,0.00,,,0.00,Wunderground v.1.15,2013-09-20 22:50:00,
2013-09-20 17:55:00,64.1,51.2,29.89,North,360,1.0,2.0,63,0.00,,,0.00,Wunderground v.1.15,2013-09-20 22:55:00,
2013-09-20 18:00:00,63.8,51.4,29.89,WNW,300,1.0,1.0,64,0.00,,,0.00,Wunderground v.1.15,2013-09-20 23:00:00,
2013-09-20 18:05:00,63.5,51.5,29.89,NNW,340,0.0,1.0,65,0.00,,,0.00,Wunderground v.1.15,2013-09-20 23:05:00,
2013-09-20 18:10:00,63.3,51.7,29.89,NW,308,0.0,0.0,66,0.00,,,0.00,Wunderground v.1.15,2013-09-20 23:10:00,
2013-09-20 18:20:00,62.9,51.4,29.90,NNE,32,0.0,0.0,66,0.00,,,0.00,Wunderground v.1.15,2013-09-20 23:20:00,
2013-09-20 18:25:00,62.7,51.2,29.89,NE,49,0.0,0.0,66,0.00,,,0.00,Wunderground v.1.15,2013-09-20 23:25:00,
2013-09-20 18:30:00,62.5,51.0,29.89,NW,319,0.0,0.0,66,0.00,,,0.00,Wunderground v.1.15,2013-09-20 23:30:00,
2013-09-20 18:35:00,62.4,50.9,29.89,North,360,0.0,0.0,66,0.00,,,0.00,Wunderground v.1.15,2013-09-20 23:35:00,
2013-09-20 18:40:00,62.3,50.8,29.89,North,11,0.0,0.0,66,0.00,,,0.00,Wunderground v.1.15,2013-09-20 23:40:00,
2013-09-20 18:50:00,62.0,51.3,29.89,North,11,0.0,0.0,68,0.00,,,0.00,Wunderground v.1.15,2013-09-20 23:50:00,
2013-09-20 18:55:00,61.7,51.0,29.89,North,11,0.0,0.0,68,0.00,,,0.00,Wunderground v.1.15,2013-09-20 23:55:00,
2013-09-20 19:00:00,61.5,51.2,29.89,North,11,0.0,0.0,69,0.00,,,0.00,Wunderground v.1.15,2013-09-21 00:00:00,
2013-09-20 19:05:00,61.3,51.0,29.89,North,11,0.0,0.0,69,0.00,,,0.00,Wunderground v.1.15,2013-09-21 00:05:00,
2013-09-20 19:15:00,60.8,51.0,29.89,North,11,0.0,0.0,70,0.00,,,0.00,Wunderground v.1.15,2013-09-21 00:15:00,
2013-09-20 19:20:00,60.5,51.0,29.89,North,11,0.0,0.0,71,0.00,,,0.00,Wunderground v.1.15,2013-09-21 00:20:00,
2013-09-20 19:25:00,60.2,50.8,29.89,North,11,0.0,0.0,71,0.00,,,0.00,Wunderground v.1.15,2013-09-21 00:25:00,
2013-09-20 19:30:00,59.9,50.8,29.89,North,11,0.0,0.0,72,0.00,,,0.00,Wunderground v.1.15,2013-09-21 00:30:00,
2013-09-20 19:35:00,59.8,50.8,29.89,North,11,0.0,0.0,72,0.00,,,0.00,Wunderground v.1.15,2013-09-21 00:35:00,
2013-09-20 19:40:00,59.5,50.8,29.89,North,11,0.0,0.0,73,0.00,,,0.00,Wunderground v.1.15,2013-09-21 00:40:00,
2013-09-20 19:45:00,59.3,51.0,29.90,North,11,0.0,0.0,74,0.00,,,0.00,Wunderground v.1.15,2013-09-21 00:45:00,
2013-09-20 19:50:00,59.0,50.7,29.90,North,11,0.0,0.0,74,0.00,,,0.00,Wunderground v.1.15,2013-09-21 00:50:00,
2013-09-20 19:55:00,58.5,50.2,29.90,North,11,0.0,0.0,74,0.00,,,0.00,Wunderground v.1.15,2013-09-21 00:55:00,
2013-09-20 20:00:00,58.5,50.6,29.90,North,11,0.0,0.0,75,0.00,,,0.00,Wunderground v.1.15,2013-09-21 01:00:00,
2013-09-20 20:10:00,58.1,50.9,29.90,North,11,0.0,0.0,77,0.00,,,0.00,Wunderground v.1.15,2013-09-21 01:10:00,
2013-09-20 20:15:00,58.0,50.8,29.91,North,11,0.0,0.0,77,0.00,,,0.00,Wunderground v.1.15,2013-09-21 01:15:00,
2013-09-20 20:20:00,57.9,50.7,29.91,North,11,0.0,0.0,77,0.00,,,0.00,Wunderground v.1.15,2013-09-21 01:20:00,
2013-09-20 20:25:00,57.9,50.7,29.91,North,11,0.0,0.0,77,0.00,,,0.00,Wunderground v.1.15,2013-09-21 01:25:00,
2013-09-20 20:30:00,57.9,51.1,29.91,North,11,0.0,0.0,78,0.00,,,0.00,Wunderground v.1.15,2013-09-21 01:30:00,
2013-09-20 20:40:00,57.8,51.0,29.91,North,11,0.0,0.0,78,0.00,,,0.00,Wunderground v.1.15,2013-09-21 01:40:00,
2013-09-20 20:45:00,57.7,50.9,29.91,North,11,0.0,0.0,78,0.00,,,0.00,Wunderground v.1.15,2013-09-21 01:45:00,
2013-09-20 20:50:00,57.5,51.0,29.92,North,11,0.0,0.0,79,0.00,,,0.00,Wunderground v.1.15,2013-09-21 01:50:00,
2013-09-20 20:55:00,57.3,50.8,29.92,North,11,0.0,0.0,79,0.00,,,0.00,Wunderground v.1.15,2013-09-21 01:55:00,
2013-09-20 21:05:00,57.1,50.6,29.92,North,11,0.0,0.0,79,0.00,,,0.00,Wunderground v.1.15,2013-09-21 02:05:00,
2013-09-20 21:10:00,57.0,50.9,29.92,North,11,0.0,0.0,80,0.00,,,0.00,Wunderground v.1.15,2013-09-21 02:10:00,
2013-09-20 21:20:00,56.7,50.6,29.92,North,11,0.0,0.0,80,0.00,,,0.00,Wunderground v.1.15,2013-09-21 02:20:00,
2013-09-20 21:25:00,56.7,50.6,29.92,North,11,0.0,0.0,80,0.00,,,0.00,Wunderground v.1.15,2013-09-21 02:25:00,
2013-09-20 21:30:00,56.6,50.5,29.92,North,11,0.0,0.0,80,0.00,,,0.00,Wunderground v.1.15,2013-09-21 02:30:00,
2013-09-20 21:35:00,56.5,50.4,29.92,North,11,0.0,0.0,80,0.00,,,0.00,Wunderground v.1.15,2013-09-21 02:35:00,
2013-09-20 21:40:00,56.5,50.7,29.92,North,11,0.0,0.0,81,0.00,,,0.00,Wunderground v.1.15,2013-09-21 02:40:00,
2013-09-20 21:45:00,56.4,50.6,29.92,North,11,0.0,0.0,81,0.00,,,0.00,Wunderground v.1.15,2013-09-21 02:45:00,
2013-09-20 21:55:00,56.2,50.4,29.93,North,11,0.0,0.0,81,0.00,,,0.00,Wunderground v.1.15,2013-09-21 02:55:00,
2013-09-20 22:00:00,56.0,50.6,29.93,North,11,0.0,0.0,82,0.00,,,0.00,Wunderground v.1.15,2013-09-21 03:00:00,
2013-09-20 22:05:00,55.9,50.5,29.93,North,11,0.0,0.0,82,0.00,,,0.00,Wunderground v.1.15,2013-09-21 03:05:00,
2013-09-20 22:10:00,55.8,50.4,29.93,North,11,0.0,0.0,82,0.00,,,0.00,Wunderground v.1.15,2013-09-21 03:10:00,
2013-09-20 22:15:00,55.7,50.3,29.93,North,11,0.0,0.0,82,0.00,,,0.00,Wunderground v.1.15,2013-09-21 03:15:00,
2013-09-20 22:20:00,55.6,50.5,29.93,North,11,0.0,0.0,83,0.00,,,0.00,Wunderground v.1.15,2013-09-21 03:20:00,
2013-09-20 22:30:00,55.4,50.3,29.93,NNE,28,0.0,0.0,83,0.00,,,0.00,Wunderground v.1.15,2013-09-21 03:30:00,
2013-09-20 22:35:00,55.3,50.2,29.93,NNE,21,0.0,0.0,83,0.00,,,0.00,Wunderground v.1.15,2013-09-21 03:35:00,
2013-09-20 22:40:00,55.4,50.6,29.94,North,360,0.0,0.0,84,0.00,,,0.00,Wunderground v.1.15,2013-09-21 03:40:00,
2013-09-20 22:45:00,55.5,50.7,29.94,NW,322,0.0,0.0,84,0.00,,,0.00,Wunderground v.1.15,2013-09-21 03:45:00,
2013-09-20 22:55:00,55.3,50.2,29.94,North,10,0.0,0.0,83,0.00,,,0.00,Wunderground v.1.15,2013-09-21 03:55:00,
2013-09-20 23:00:00,55.1,50.0,29.94,NNE,12,0.0,0.0,83,0.00,,,0.00,Wunderground v.1.15,2013-09-21 04:00:00,
2013-09-20 23:05:00,55.0,49.9,29.94,NNW,327,0.0,0.0,83,0.00,,,0.00,Wunderground v.1.15,2013-09-21 04:05:00,
2013-09-20 23:10:00,54.8,49.7,29.94,NW,308,0.0,0.0,83,0.00,,,0.00,Wunderground v.1.15,2013-09-21 04:10:00,
2013-09-20 23:15:00,54.5,49.1,29.94,NW,309,0.0,0.0,82,0.00,,,0.00,Wunderground v.1.15,2013-09-21 04:15:00,
2013-09-20 23:25:00,54.2,48.5,29.94,WNW,302,0.0,0.0,81,0.00,,,0.00,Wunderground v.1.15,2013-09-21 04:25:00,
2013-09-20 23:30:00,54.1,48.4,29.94,North,355,0.0,0.0,81,0.00,,,0.00,Wunderground v.1.15,2013-09-21 04:30:00,
2013-09-20 23:35:00,53.9,47.9,29.93,North,355,0.0,0.0,80,0.00,,,0.00,Wunderground v.1.15,2013-09-21 04:35:00,
2013-09-20 23:45:00,53.7,47.7,29.93,NW,319,0.0,0.0,80,0.00,,,0.00,Wunderground v.1.15,2013-09-21 04:45:00,
2013-09-20 23:50:00,53.5,47.5,29.93,North,355,0.0,0.0,80,0.00,,,0.00,Wunderground v.1.15,2013-09-21 04:50:00,
2013-09-20 23:55:00,53.4,47.4,29.93,North,355,0.0,0.0,80,0.00,,,0.00,Wunderground v.1.15,2013-09-21 04:55:00,